Time;durP1;ratioP1;P1;durP2;ratioP2;P2;SDS_P1;SDS_P2;PMS_P1;PMS_P2;Temp;Humidity;BMP_temperature;BMP_pressure;BME280_temperature;BME280_humidity;BME280_pressure;Samples;Min_cycle;Max_cycle;Signal;HPM_P1;HPM_P2
2022/07/22 00:01:19;;;;;;;0.45;0.20;;;16.00;99.90;;;;;;5055576;28;20052;-78
2022/07/22 00:03:45;;;;;;;0.75;0.28;;;16.00;99.90;;;;;;5055542;28;20048;-78
2022/07/22 00:06:11;;;;;;;0.00;0.00;;;16.00;99.90;;;;;;5055576;28;20091;-78
2022/07/22 00:08:37;;;;;;;0.10;0.10;;;16.00;99.90;;;;;;5055535;28;20076;-77
2022/07/22 00:11:03;;;;;;;0.00;0.00;;;15.90;99.90;;;;;;5055427;28;20049;-78
2022/07/22 00:13:28;;;;;;;0.00;0.00;;;15.90;99.90;;;;;;5055452;28;20060;-78
2022/07/22 00:15:54;;;;;;;0.00;0.00;;;15.90;99.90;;;;;;5072195;28;20061;-78
2022/07/22 00:18:20;;;;;;;0.00;0.00;;;15.90;99.90;;;;;;5072094;28;20057;-78
2022/07/22 00:20:45;;;;;;;0.00;0.00;;;15.80;99.90;;;;;;5054995;28;20045;-78
2022/07/22 00:23:11;;;;;;;0.00;0.00;;;15.90;99.90;;;;;;5055228;28;20109;-78
2022/07/22 00:25:37;;;;;;;0.20;0.20;;;15.90;99.90;;;;;;5071227;28;20583;-78
2022/07/22 00:28:03;;;;;;;0.00;0.00;;;15.90;99.90;;;;;;5055136;28;20135;-78
2022/07/22 00:30:29;;;;;;;0.00;0.00;;;15.80;99.90;;;;;;5071826;28;20136;-78
2022/07/22 00:32:54;;;;;;;0.00;0.00;;;15.80;99.90;;;;;;5071832;28;20131;-78
2022/07/22 00:35:20;;;;;;;0.00;0.00;;;15.80;99.90;;;;;;5054924;28;20542;-78
2022/07/22 00:37:46;;;;;;;0.00;0.00;;;15.70;99.90;;;;;;5071639;28;20515;-78
2022/07/22 00:40:12;;;;;;;0.30;0.10;;;15.80;99.90;;;;;;5072053;28;20383;-78
2022/07/22 00:42:37;;;;;;;0.00;0.00;;;15.70;99.90;;;;;;5054829;28;20102;-78
2022/07/22 00:45:04;;;;;;;0.10;0.00;;;15.80;99.90;;;;;;5071861;28;20056;-78
2022/07/22 00:47:29;;;;;;;0.00;0.00;;;15.70;99.90;;;;;;5071021;28;20143;-78
2022/07/22 00:49:55;;;;;;;0.00;0.00;;;15.70;99.90;;;;;;5054676;28;20128;-78
2022/07/22 00:52:22;;;;;;;0.90;0.40;;;15.80;99.90;;;;;;5055382;28;20134;-78
2022/07/22 00:54:48;;;;;;;0.00;0.00;;;15.80;99.90;;;;;;5055017;28;20261;-78
2022/07/22 00:57:14;;;;;;;0.00;0.00;;;15.80;99.90;;;;;;5054207;28;20492;-78
2022/07/22 00:59:40;;;;;;;0.00;0.00;;;15.70;99.90;;;;;;5054243;28;20049;-78
2022/07/22 01:02:06;;;;;;;0.00;0.00;;;15.70;99.90;;;;;;5087975;28;20088;-78
2022/07/22 01:04:31;;;;;;;0.20;0.20;;;15.70;99.90;;;;;;5054412;28;20140;-78
2022/07/22 01:06:57;;;;;;;0.00;0.00;;;15.70;99.90;;;;;;5054375;28;20128;-78
2022/07/22 01:09:23;;;;;;;0.73;0.15;;;15.70;99.90;;;;;;5070947;28;20048;-78
2022/07/22 01:11:48;;;;;;;0.00;0.00;;;15.70;99.90;;;;;;5054176;28;20043;-78
2022/07/22 01:14:14;;;;;;;0.00;0.00;;;15.70;99.90;;;;;;5071093;28;20095;-78
2022/07/22 01:16:39;;;;;;;0.00;0.00;;;15.60;99.90;;;;;;5070510;28;20059;-78
2022/07/22 01:19:05;;;;;;;0.00;0.00;;;15.70;99.90;;;;;;5054119;28;20049;-78
2022/07/22 01:21:31;;;;;;;0.00;0.00;;;15.70;99.90;;;;;;5070953;28;20049;-78
2022/07/22 01:23:57;;;;;;;0.00;0.00;;;15.70;99.90;;;;;;5070920;28;20546;-78
2022/07/22 01:26:24;;;;;;;0.00;0.00;;;15.70;99.90;;;;;;5053967;28;20647;-78
2022/07/22 01:28:50;;;;;;;0.00;0.00;;;15.70;99.90;;;;;;5053874;28;20049;-78
2022/07/22 01:31:16;;;;;;;0.00;0.00;;;15.70;99.90;;;;;;5070222;28;20430;-78
2022/07/22 01:33:42;;;;;;;0.00;0.00;;;15.70;99.90;;;;;;5071082;28;20144;-78
2022/07/22 01:36:08;;;;;;;0.10;0.10;;;15.70;99.90;;;;;;5070332;28;20075;-78
2022/07/22 01:38:34;;;;;;;0.00;0.00;;;15.70;99.90;;;;;;5053894;28;20041;-78
2022/07/22 01:41:00;;;;;;;0.25;0.10;;;15.70;99.90;;;;;;5053397;28;20041;-78
2022/07/22 01:43:25;;;;;;;0.00;0.00;;;15.70;99.90;;;;;;5053699;28;20041;-78
2022/07/22 01:45:53;;;;;;;0.00;0.00;;;15.70;99.90;;;;;;5053490;28;20095;-78
2022/07/22 01:48:19;;;;;;;1.38;0.35;;;15.70;99.90;;;;;;5053759;28;20048;-78
2022/07/22 01:50:45;;;;;;;0.00;0.00;;;15.70;99.90;;;;;;5053709;28;20041;-78
2022/07/22 01:53:11;;;;;;;0.38;0.38;;;15.70;99.90;;;;;;5070571;28;20073;-78
2022/07/22 01:55:37;;;;;;;0.20;0.20;;;15.70;99.90;;;;;;5053421;28;20057;-78
2022/07/22 01:58:04;;;;;;;0.00;0.00;;;15.70;99.90;;;;;;5053567;28;20455;-78
2022/07/22 02:00:31;;;;;;;0.28;0.28;;;15.70;99.90;;;;;;5069556;28;20037;-78
2022/07/22 02:02:57;;;;;;;0.00;0.00;;;15.70;99.90;;;;;;5054034;28;20045;-78
2022/07/22 02:05:22;;;;;;;0.00;0.00;;;15.70;99.90;;;;;;5070390;28;20451;-78
2022/07/22 02:07:48;;;;;;;0.00;0.00;;;15.70;99.90;;;;;;5070557;28;20500;-78
2022/07/22 02:10:14;;;;;;;0.00;0.00;;;15.70;99.90;;;;;;5053461;28;20044;-78
2022/07/22 02:12:39;;;;;;;0.00;0.00;;;15.60;99.90;;;;;;5036760;28;20056;-78
2022/07/22 02:15:06;;;;;;;0.63;0.28;;;15.60;99.90;;;;;;5053252;28;20040;-79
2022/07/22 02:17:35;;;;;;;0.00;0.00;;;15.60;99.90;;;;;;5052941;28;20045;-78
2022/07/22 02:20:02;;;;;;;0.00;0.00;;;15.60;99.90;;;;;;5069586;28;20053;-78
2022/07/22 02:22:28;;;;;;;0.00;0.00;;;15.60;99.90;;;;;;5069809;28;20045;-78
2022/07/22 02:24:54;;;;;;;0.00;0.00;;;15.50;99.90;;;;;;5053101;28;20059;-78
2022/07/22 02:27:19;;;;;;;0.20;0.20;;;15.50;99.90;;;;;;5036562;28;20052;-79
2022/07/22 02:29:45;;;;;;;0.00;0.00;;;15.50;99.90;;;;;;5053079;28;20051;-78
2022/07/22 02:32:11;;;;;;;0.00;0.00;;;15.50;99.90;;;;;;5053264;28;20053;-78
2022/07/22 02:34:37;;;;;;;0.00;0.00;;;15.50;99.90;;;;;;5053508;28;20391;-78
2022/07/22 02:37:02;;;;;;;0.00;0.00;;;15.50;99.90;;;;;;5052919;28;20476;-79
2022/07/22 02:39:28;;;;;;;0.00;0.00;;;15.50;99.90;;;;;;5052893;28;20037;-78
2022/07/22 02:41:54;;;;;;;0.20;0.20;;;15.50;99.90;;;;;;5052502;28;20036;-78
2022/07/22 02:44:20;;;;;;;0.10;0.10;;;15.50;99.90;;;;;;5068561;28;20053;-78
2022/07/22 02:46:45;;;;;;;0.00;0.00;;;15.50;99.90;;;;;;5052978;28;20432;-78
2022/07/22 02:49:11;;;;;;;12.52;0.55;;;15.50;99.90;;;;;;5069555;28;20037;-78
2022/07/22 02:51:37;;;;;;;0.10;0.10;;;15.50;99.90;;;;;;5069728;28;20200;-78
2022/07/22 02:54:03;;;;;;;0.00;0.00;;;15.50;99.90;;;;;;5069376;28;20114;-79
2022/07/22 02:56:29;;;;;;;0.00;0.00;;;15.50;99.90;;;;;;5068740;28;20144;-79
2022/07/22 02:58:54;;;;;;;0.00;0.00;;;15.50;99.90;;;;;;5069650;28;20048;-79
2022/07/22 03:01:20;;;;;;;0.00;0.00;;;15.50;99.90;;;;;;5069327;28;20049;-78
2022/07/22 03:03:46;;;;;;;0.00;0.00;;;15.50;99.90;;;;;;5052881;28;20088;-79
2022/07/22 03:06:12;;;;;;;0.00;0.00;;;15.50;99.90;;;;;;5053034;28;20102;-79
2022/07/22 03:08:38;;;;;;;0.00;0.00;;;15.40;99.90;;;;;;5052840;28;20045;-78
2022/07/22 03:11:04;;;;;;;0.00;0.00;;;15.40;99.90;;;;;;5069218;28;20404;-78
2022/07/22 03:13:30;;;;;;;0.00;0.00;;;15.40;99.90;;;;;;5053503;28;20373;-78
2022/07/22 03:15:56;;;;;;;0.28;0.15;;;15.40;99.90;;;;;;5086606;28;20051;-79
2022/07/22 03:18:21;;;;;;;0.00;0.00;;;15.40;99.90;;;;;;5052970;28;20099;-79
2022/07/22 03:20:47;;;;;;;0.00;0.00;;;15.40;99.90;;;;;;5052107;28;20477;-79
2022/07/22 03:23:13;;;;;;;0.00;0.00;;;15.40;99.90;;;;;;5069246;28;20083;-79
2022/07/22 03:25:39;;;;;;;0.00;0.00;;;15.40;99.90;;;;;;5052171;28;20049;-79
2022/07/22 03:28:06;;;;;;;2.45;0.55;;;15.40;99.90;;;;;;5069109;28;20049;-79
2022/07/22 03:30:32;;;;;;;0.00;0.00;;;15.40;99.90;;;;;;5073285;28;20056;-79
2022/07/22 03:32:57;;;;;;;0.95;0.38;;;15.40;99.90;;;;;;5073583;28;20057;-79
2022/07/22 03:35:23;;;;;;;0.00;0.00;;;15.30;99.90;;;;;;5056124;28;20053;-79
2022/07/22 03:37:49;;;;;;;0.00;0.00;;;15.30;99.90;;;;;;5072935;28;20072;-79
2022/07/22 03:40:15;;;;;;;0.00;0.00;;;15.30;99.90;;;;;;5072434;28;20049;-79
2022/07/22 03:42:40;;;;;;;0.00;0.00;;;15.40;99.90;;;;;;5072883;28;20055;-79
2022/07/22 03:45:07;;;;;;;0.00;0.00;;;15.40;99.90;;;;;;5072904;28;20060;-79
2022/07/22 03:47:32;;;;;;;0.00;0.00;;;15.40;99.90;;;;;;5072696;28;20045;-79
2022/07/22 03:49:58;;;;;;;0.00;0.00;;;15.40;99.90;;;;;;5072900;28;20052;-79
2022/07/22 03:52:25;;;;;;;0.00;0.00;;;15.40;99.90;;;;;;5055474;28;20059;-79
2022/07/22 03:54:51;;;;;;;0.00;0.00;;;15.40;99.90;;;;;;5072322;28;20063;-79
2022/07/22 03:57:16;;;;;;;0.00;0.00;;;15.40;99.90;;;;;;5072463;28;20493;-79
2022/07/22 03:59:42;;;;;;;0.00;0.00;;;15.40;99.90;;;;;;5055706;28;20567;-79
2022/07/22 04:02:08;;;;;;;0.00;0.00;;;15.40;99.90;;;;;;5055749;28;20092;-79
2022/07/22 04:04:33;;;;;;;0.00;0.00;;;15.40;99.90;;;;;;5072313;28;20049;-80
2022/07/22 04:06:59;;;;;;;0.00;0.00;;;15.40;99.90;;;;;;5055615;28;20388;-79
2022/07/22 04:09:24;;;;;;;0.00;0.00;;;15.40;99.90;;;;;;5055520;28;20059;-80
2022/07/22 04:11:50;;;;;;;0.00;0.00;;;15.50;99.90;;;;;;5055579;28;20431;-80
2022/07/22 04:14:17;;;;;;;0.00;0.00;;;15.50;99.90;;;;;;5072223;28;20166;-80
2022/07/22 04:16:43;;;;;;;0.00;0.00;;;15.40;99.90;;;;;;5056321;28;20041;-80
2022/07/22 04:19:10;;;;;;;0.00;0.00;;;15.40;99.90;;;;;;5072200;28;20044;-80
2022/07/22 04:21:35;;;;;;;0.00;0.00;;;15.40;99.90;;;;;;5055335;28;20037;-79
2022/07/22 04:24:01;;;;;;;0.00;0.00;;;15.50;99.90;;;;;;5072146;28;20041;-80
2022/07/22 04:26:27;;;;;;;0.00;0.00;;;15.40;99.90;;;;;;5072705;28;20396;-80
2022/07/22 04:28:53;;;;;;;0.00;0.00;;;15.50;99.90;;;;;;5055856;28;20485;-80
2022/07/22 04:31:18;;;;;;;0.00;0.00;;;15.50;99.90;;;;;;5072211;28;20056;-80
2022/07/22 04:33:44;;;;;;;0.00;0.00;;;15.50;99.90;;;;;;5055333;28;20163;-80
2022/07/22 04:36:10;;;;;;;0.00;0.00;;;15.50;99.90;;;;;;5071963;28;20045;-80
2022/07/22 04:38:35;;;;;;;0.00;0.00;;;15.50;99.90;;;;;;5071864;28;20057;-80
2022/07/22 04:41:01;;;;;;;0.00;0.00;;;15.50;99.90;;;;;;5054402;28;20041;-80
2022/07/22 04:43:27;;;;;;;0.03;0.00;;;15.40;99.90;;;;;;5055146;28;20432;-80
2022/07/22 04:45:52;;;;;;;0.00;0.00;;;15.50;99.90;;;;;;5072046;28;20423;-80
2022/07/22 04:48:18;;;;;;;0.00;0.00;;;15.50;99.90;;;;;;5071948;28;20045;-80
2022/07/22 04:50:44;;;;;;;0.00;0.00;;;15.50;99.90;;;;;;5071836;28;20400;-80
2022/07/22 04:53:10;;;;;;;0.00;0.00;;;15.50;99.90;;;;;;5054855;28;20519;-80
2022/07/22 04:55:36;;;;;;;0.00;0.00;;;15.50;99.90;;;;;;5054501;28;20084;-80
2022/07/22 04:58:02;;;;;;;0.00;0.00;;;15.60;99.90;;;;;;5054884;28;20091;-80
2022/07/22 05:00:27;;;;;;;0.00;0.00;;;15.50;99.90;;;;;;5054508;28;20080;-80
2022/07/22 05:02:53;;;;;;;0.00;0.00;;;15.60;99.90;;;;;;5071633;28;20057;-80
2022/07/22 05:05:19;;;;;;;0.00;0.00;;;15.60;99.90;;;;;;5054509;28;20503;-80
2022/07/22 05:07:45;;;;;;;0.00;0.00;;;15.60;99.90;;;;;;5054425;28;20041;-80
2022/07/22 05:10:10;;;;;;;0.00;0.00;;;15.60;99.90;;;;;;5054461;28;20362;-80
2022/07/22 05:12:36;;;;;;;0.00;0.00;;;15.60;99.90;;;;;;5054692;28;20136;-80
2022/07/22 05:15:02;;;;;;;0.00;0.00;;;15.60;99.90;;;;;;5054426;28;20041;-80
2022/07/22 05:17:28;;;;;;;0.00;0.00;;;15.60;99.90;;;;;;5054740;28;20041;-80
2022/07/22 05:19:54;;;;;;;0.00;0.00;;;15.60;99.90;;;;;;5070943;28;20045;-80
2022/07/22 05:22:20;;;;;;;0.00;0.00;;;15.60;99.90;;;;;;5054179;28;20497;-80
2022/07/22 05:24:45;;;;;;;0.00;0.00;;;15.60;99.90;;;;;;5054434;28;20068;-80
2022/07/22 05:27:11;;;;;;;0.10;0.10;;;15.70;99.90;;;;;;5070876;28;20057;-80
2022/07/22 05:29:37;;;;;;;0.00;0.00;;;15.70;99.90;;;;;;5054303;28;20067;-80
2022/07/22 05:32:03;;;;;;;0.00;0.00;;;15.70;99.90;;;;;;5054243;28;20049;-80
2022/07/22 05:34:29;;;;;;;0.00;0.00;;;15.70;99.90;;;;;;5054283;28;20051;-80
2022/07/22 05:36:54;;;;;;;0.00;0.00;;;15.70;99.90;;;;;;5070524;28;20048;-79
2022/07/22 05:39:20;;;;;;;0.00;0.00;;;15.70;99.90;;;;;;5053556;28;20037;-79
2022/07/22 05:41:46;;;;;;;0.00;0.00;;;15.70;99.90;;;;;;5070418;28;20107;-79
2022/07/22 05:44:11;;;;;;;0.00;0.00;;;15.70;99.90;;;;;;5053850;28;20037;-79
2022/07/22 05:46:37;;;;;;;0.00;0.00;;;15.70;99.90;;;;;;5053946;28;20037;-79
2022/07/22 05:49:03;;;;;;;0.00;0.00;;;15.80;99.90;;;;;;5069456;28;20508;-79
2022/07/22 05:51:29;;;;;;;0.10;0.10;;;15.80;99.90;;;;;;5053335;28;20049;-79
2022/07/22 05:53:54;;;;;;;0.00;0.00;;;15.80;99.90;;;;;;5086421;28;20089;-79
2022/07/22 05:56:20;;;;;;;0.00;0.00;;;15.80;99.90;;;;;;5069636;28;20088;-79
2022/07/22 05:58:46;;;;;;;0.00;0.00;;;15.80;99.90;;;;;;5053256;28;20142;-79
2022/07/22 06:01:12;;;;;;;0.30;0.25;;;15.80;99.90;;;;;;5053204;28;20045;-79
2022/07/22 06:03:38;;;;;;;0.00;0.00;;;15.80;99.90;;;;;;5070027;28;20064;-79
2022/07/22 06:06:05;;;;;;;0.00;0.00;;;15.90;99.90;;;;;;5053340;28;20044;-79
2022/07/22 06:08:31;;;;;;;0.00;0.00;;;15.90;99.90;;;;;;5053340;28;20056;-79
2022/07/22 06:10:59;;;;;;;0.10;0.10;;;16.00;99.90;;;;;;5069979;28;20447;-79
2022/07/22 06:13:24;;;;;;;0.00;0.00;;;16.00;99.90;;;;;;5069751;28;20127;-78
2022/07/22 06:15:51;;;;;;;0.00;0.00;;;16.00;99.90;;;;;;5066140;28;20056;-79
2022/07/22 06:18:16;;;;;;;0.25;0.25;;;16.10;99.90;;;;;;5069889;28;20056;-79
2022/07/22 06:20:42;;;;;;;0.10;0.10;;;16.10;99.90;;;;;;5086249;28;20041;-79
2022/07/22 06:23:08;;;;;;;0.00;0.00;;;16.10;99.90;;;;;;5086610;28;20044;-79
2022/07/22 06:25:34;;;;;;;0.00;0.00;;;16.10;99.90;;;;;;5069767;28;20064;-79
2022/07/22 06:27:59;;;;;;;0.00;0.00;;;16.10;99.90;;;;;;5069611;28;20052;-79
2022/07/22 06:30:26;;;;;;;0.00;0.00;;;16.20;99.90;;;;;;5069516;28;20131;-79
2022/07/22 06:32:52;;;;;;;0.40;0.30;;;16.20;99.90;;;;;;5086358;28;20041;-79
2022/07/22 06:35:18;;;;;;;0.00;0.00;;;16.30;99.90;;;;;;5086375;28;20041;-79
2022/07/22 06:37:44;;;;;;;0.25;0.25;;;16.30;99.90;;;;;;5069712;28;20517;-79
2022/07/22 06:40:10;;;;;;;0.00;0.00;;;16.40;99.90;;;;;;5069366;28;20075;-79
2022/07/22 06:42:36;;;;;;;0.00;0.00;;;16.40;99.90;;;;;;5069450;28;20135;-79
2022/07/22 06:45:02;;;;;;;0.00;0.00;;;16.50;99.90;;;;;;5069405;28;20080;-79
2022/07/22 06:47:29;;;;;;;0.00;0.00;;;16.50;99.90;;;;;;5085976;28;20047;-79
2022/07/22 06:49:54;;;;;;;0.00;0.00;;;16.50;99.90;;;;;;5069239;28;20044;-79
2022/07/22 06:52:20;;;;;;;0.20;0.00;;;16.60;99.90;;;;;;5069262;28;20102;-79
2022/07/22 06:54:46;;;;;;;0.10;0.08;;;16.70;99.90;;;;;;5069723;28;20053;-78
2022/07/22 06:57:11;;;;;;;0.00;0.00;;;16.70;99.90;;;;;;5085788;28;20053;-79
2022/07/22 06:59:37;;;;;;;0.00;0.00;;;16.70;99.90;;;;;;5085964;28;20045;-79
2022/07/22 07:02:03;;;;;;;0.00;0.00;;;16.80;99.90;;;;;;5069217;28;20132;-79
2022/07/22 07:04:29;;;;;;;0.00;0.00;;;16.80;99.90;;;;;;5090393;28;20106;-79
2022/07/22 07:06:55;;;;;;;0.00;0.00;;;16.80;99.90;;;;;;5075972;28;20059;-79
2022/07/22 07:09:20;;;;;;;0.00;0.00;;;16.80;99.90;;;;;;5093316;28;20389;-79
2022/07/22 07:11:46;;;;;;;0.05;0.00;;;16.90;99.90;;;;;;5092745;28;20040;-79
2022/07/22 07:14:12;;;;;;;0.00;0.00;;;16.90;99.90;;;;;;5092905;28;20117;-79
2022/07/22 07:16:37;;;;;;;0.00;0.00;;;16.90;99.90;;;;;;5092615;28;20049;-79
2022/07/22 07:19:03;;;;;;;0.00;0.00;;;17.00;99.90;;;;;;5092511;28;20045;-79
2022/07/22 07:21:29;;;;;;;0.00;0.00;;;17.00;99.90;;;;;;5076231;28;20378;-78
2022/07/22 07:23:55;;;;;;;0.00;0.00;;;17.00;99.90;;;;;;5058997;28;20088;-79
2022/07/22 07:26:21;;;;;;;0.00;0.00;;;17.00;99.90;;;;;;5092689;28;20041;-78
2022/07/22 07:28:47;;;;;;;0.00;0.00;;;17.10;99.90;;;;;;5075703;28;20041;-79
2022/07/22 07:31:12;;;;;;;0.00;0.00;;;17.10;99.90;;;;;;5075584;28;20052;-79
2022/07/22 07:33:39;;;;;;;0.00;0.00;;;17.20;99.90;;;;;;5092554;28;20063;-79
2022/07/22 07:36:05;;;;;;;0.00;0.00;;;17.30;99.90;;;;;;5075693;28;20396;-79
2022/07/22 07:38:31;;;;;;;0.00;0.00;;;17.30;99.90;;;;;;5092465;28;20045;-80
2022/07/22 07:40:57;;;;;;;0.00;0.00;;;17.30;99.90;;;;;;5092050;28;20041;-79
2022/07/22 07:43:23;;;;;;;0.32;0.20;;;17.40;99.90;;;;;;5075719;28;20114;-80
2022/07/22 07:45:49;;;;;;;0.30;0.25;;;17.40;99.90;;;;;;5092318;28;20048;-79
2022/07/22 07:48:14;;;;;;;0.00;0.00;;;17.50;99.90;;;;;;5092417;28;20128;-79
2022/07/22 07:50:40;;;;;;;0.55;0.00;;;17.50;99.90;;;;;;5075662;28;20049;-79
2022/07/22 07:53:06;;;;;;;0.10;0.00;;;17.40;99.90;;;;;;5075438;28;20053;-87
2022/07/22 07:55:32;;;;;;;0.00;0.00;;;17.40;99.90;;;;;;5092248;28;20057;-79
2022/07/22 07:57:57;;;;;;;0.00;0.00;;;17.40;99.90;;;;;;5092334;28;20055;-79
2022/07/22 08:00:28;;;;;;;0.00;0.00;;;17.40;99.90;;;;;;5075181;28;20037;-79
2022/07/22 08:02:55;;;;;;;0.00;0.00;;;17.50;99.90;;;;;;5041933;28;20060;-79
2022/07/22 08:05:21;;;;;;;0.00;0.00;;;17.60;99.90;;;;;;5092172;28;20098;-79
2022/07/22 08:07:47;;;;;;;0.00;0.00;;;17.60;99.90;;;;;;5075486;28;20059;-79
2022/07/22 08:10:13;;;;;;;0.00;0.00;;;17.60;99.90;;;;;;5075307;28;20135;-79
2022/07/22 08:12:39;;;;;;;0.00;0.00;;;17.60;99.90;;;;;;5092239;28;20139;-79
2022/07/22 08:15:06;;;;;;;0.00;0.00;;;17.60;99.90;;;;;;5072859;28;20408;-79
2022/07/22 08:17:33;;;;;;;0.00;0.00;;;17.70;99.90;;;;;;5088949;28;20095;-79
2022/07/22 08:19:59;;;;;;;0.00;0.00;;;17.60;99.90;;;;;;5088837;28;20041;-79
2022/07/22 08:22:25;;;;;;;0.00;0.00;;;17.70;99.90;;;;;;5089674;28;20099;-78
2022/07/22 08:24:51;;;;;;;0.00;0.00;;;17.70;99.90;;;;;;5089063;28;20084;-79
2022/07/22 08:27:16;;;;;;;0.00;0.00;;;17.70;99.90;;;;;;5088934;28;20041;-80
2022/07/22 08:29:42;;;;;;;0.00;0.00;;;17.70;99.90;;;;;;5088701;28;20059;-79
2022/07/22 08:32:07;;;;;;;0.00;0.00;;;17.70;99.90;;;;;;5071657;28;20057;-79
2022/07/22 08:34:34;;;;;;;0.00;0.00;;;17.70;99.90;;;;;;5088664;28;20049;-79
2022/07/22 08:37:00;;;;;;;0.00;0.00;;;17.70;99.90;;;;;;5071781;28;20132;-79
2022/07/22 08:39:25;;;;;;;0.90;0.25;;;17.80;99.90;;;;;;5088427;28;20128;-79
2022/07/22 08:41:51;;;;;;;1.00;0.35;;;18.00;99.90;;;;;;5088720;28;20044;-79
2022/07/22 08:44:17;;;;;;;0.00;0.00;;;18.10;99.90;;;;;;5088481;28;20194;-79
2022/07/22 08:46:44;;;;;;;0.00;0.00;;;18.30;99.90;;;;;;5088910;28;20049;-79
2022/07/22 08:49:13;;;;;;;0.00;0.00;;;18.40;99.90;;;;;;5088299;28;20053;-79
2022/07/22 08:51:39;;;;;;;0.00;0.00;;;18.40;99.90;;;;;;5072067;28;20060;-79
2022/07/22 08:54:04;;;;;;;0.00;0.00;;;18.50;99.90;;;;;;5088177;28;20045;-79
2022/07/22 08:56:30;;;;;;;0.00;0.00;;;18.40;99.90;;;;;;5071033;28;20061;-79
2022/07/22 08:58:56;;;;;;;0.10;0.10;;;18.40;99.90;;;;;;5071568;28;20139;-79
2022/07/22 09:01:24;;;;;;;0.00;0.00;;;18.40;99.90;;;;;;5088164;28;20052;-79
2022/07/22 09:03:52;;;;;;;0.00;0.00;;;18.30;99.90;;;;;;5071260;28;20049;-79
2022/07/22 09:06:20;;;;;;;0.00;0.00;;;18.30;99.90;;;;;;5071340;28;20037;-79
2022/07/22 09:08:56;;;;;;;0.00;0.00;;;18.30;99.90;;;;;;5071485;28;20061;-79
2022/07/22 09:11:24;;;;;;;0.00;0.00;;;18.40;99.90;;;;;;5037785;28;20106;-78
2022/07/22 09:13:50;;;;;;;0.00;0.00;;;18.40;99.90;;;;;;5037735;28;20055;-79
2022/07/22 09:16:16;;;;;;;0.00;0.00;;;18.40;99.90;;;;;;5087920;28;20488;-79
2022/07/22 09:18:53;;;;;;;0.00;0.00;;;18.50;99.90;;;;;;5087992;28;20044;-79
2022/07/22 09:21:20;;;;;;;0.00;0.00;;;18.50;99.90;;;;;;5070806;28;20128;-79
2022/07/22 09:23:46;;;;;;;0.00;0.00;;;18.50;99.90;;;;;;5087837;28;20049;-79
2022/07/22 09:26:32;;;;;;;0.00;0.00;;;18.50;99.90;;;;;;5088083;28;20055;-79
2022/07/22 09:28:59;;;;;;;0.45;0.30;;;18.50;99.90;;;;;;5070771;28;20440;-79
2022/07/22 09:31:30;;;;;;;0.13;0.00;;;18.50;99.90;;;;;;5037468;28;20457;-79
2022/07/22 09:33:57;;;;;;;0.00;0.00;;;18.50;99.90;;;;;;5070966;28;20052;-78
2022/07/22 09:36:23;;;;;;;0.00;0.00;;;18.50;99.90;;;;;;5070414;28;20045;-79
2022/07/22 09:38:49;;;;;;;0.00;0.00;;;18.50;99.90;;;;;;5053954;28;20388;-79
2022/07/22 09:41:15;;;;;;;0.00;0.00;;;18.50;99.90;;;;;;5087822;28;20044;-78
2022/07/22 09:43:41;;;;;;;0.25;0.20;;;18.50;99.90;;;;;;5087632;28;20075;-78
2022/07/22 09:46:08;;;;;;;0.00;0.00;;;18.50;99.90;;;;;;5070486;28;20049;-78
2022/07/22 09:48:34;;;;;;;0.30;0.10;;;18.50;99.90;;;;;;5087261;28;20053;-78
2022/07/22 09:50:59;;;;;;;0.00;0.00;;;18.50;99.90;;;;;;5087243;28;20045;-78
2022/07/22 09:53:30;;;;;;;0.00;0.00;;;18.40;99.90;;;;;;5086924;28;20048;-78
2022/07/22 09:56:00;;;;;;;0.00;0.00;;;18.50;99.90;;;;;;5086899;28;20053;-79
2022/07/22 09:58:27;;;;;;;0.65;0.43;;;18.50;99.90;;;;;;5054012;28;20460;-79
2022/07/22 10:00:57;;;;;;;0.10;0.10;;;18.50;99.90;;;;;;5070153;28;20056;-79
2022/07/22 10:03:28;;;;;;;0.00;0.00;;;18.50;99.90;;;;;;5070161;28;20055;-79
2022/07/22 10:05:55;;;;;;;0.00;0.00;;;18.60;99.90;;;;;;5086604;28;20053;-79
2022/07/22 10:08:21;;;;;;;0.00;0.00;;;18.70;99.90;;;;;;5069751;28;20366;-79
2022/07/22 10:10:48;;;;;;;0.00;0.00;;;18.70;99.90;;;;;;5069994;28;20155;-79
2022/07/22 10:13:14;;;;;;;0.00;0.00;;;18.70;99.90;;;;;;5069965;28;20131;-79
2022/07/22 10:15:39;;;;;;;0.03;0.00;;;18.60;99.90;;;;;;5069813;28;20140;-79
2022/07/22 10:18:08;;;;;;;0.00;0.00;;;18.50;99.90;;;;;;5069793;28;20049;-78
2022/07/22 10:20:34;;;;;;;0.10;0.00;;;18.50;99.90;;;;;;5070247;28;20087;-79
2022/07/22 10:23:07;;;;;;;0.00;0.00;;;18.50;99.90;;;;;;5069723;28;20048;-78
2022/07/22 10:25:48;;;;;;;0.00;0.00;;;18.50;99.90;;;;;;5070084;28;20068;-78
2022/07/22 10:28:32;;;;;;;0.00;0.00;;;18.50;99.90;;;;;;5086642;28;20127;-79
2022/07/22 10:31:16;;;;;;;0.38;0.17;;;18.50;99.90;;;;;;5087325;28;20063;-79
2022/07/22 10:33:43;;;;;;;1.45;0.32;;;18.60;99.90;;;;;;5085972;28;20461;-79
2022/07/22 10:36:09;;;;;;;0.00;0.00;;;18.70;99.90;;;;;;5086231;28;20045;-78
2022/07/22 10:38:35;;;;;;;0.00;0.00;;;18.90;99.90;;;;;;5077810;28;20053;-79
2022/07/22 10:41:03;;;;;;;0.00;0.00;;;19.10;99.90;;;;;;5049267;28;20096;-79
2022/07/22 10:43:31;;;;;;;0.15;0.08;;;19.50;99.90;;;;;;5072458;28;20033;-79
2022/07/22 10:46:06;;;;;;;0.00;0.00;;;19.70;99.90;;;;;;5035829;28;20044;-78
2022/07/22 10:48:37;;;;;;;0.00;0.00;;;19.90;99.90;;;;;;5069287;28;20060;-79
2022/07/22 10:51:12;;;;;;;0.00;0.00;;;20.10;99.90;;;;;;5069423;28;20523;-79
2022/07/22 10:53:42;;;;;;;;;;;20.20;99.90;;;;;;5086162;28;20056;-79
2022/07/22 10:56:37;;;;;;;0.10;0.10;;;20.20;99.90;;;;;;5058642;28;19990;-79
2022/07/22 10:59:16;;;;;;;0.00;0.00;;;20.30;99.90;;;;;;5065824;28;20540;-78
2022/07/22 11:01:45;;;;;;;0.10;0.10;;;20.30;99.90;;;;;;5048628;28;20049;-79
2022/07/22 11:04:23;;;;;;;0.00;0.00;;;20.20;99.90;;;;;;5049152;28;20046;-78
2022/07/22 11:06:51;;;;;;;0.00;0.00;;;20.10;99.90;;;;;;5049375;28;20057;-78
2022/07/22 11:09:20;;;;;;;0.75;0.25;;;19.90;99.90;;;;;;5032054;28;20417;-79
2022/07/22 11:11:50;;;;;;;0.00;0.00;;;19.80;99.90;;;;;;5032214;28;20504;-79
2022/07/22 11:14:20;;;;;;;0.00;0.00;;;19.70;99.90;;;;;;5051403;28;20049;-79
2022/07/22 11:16:48;;;;;;;0.00;0.00;;;19.60;99.90;;;;;;5051773;28;20087;-78
2022/07/22 11:19:18;;;;;;;0.10;0.10;;;19.50;99.90;;;;;;5051755;28;20041;-79
2022/07/22 11:21:53;;;;;;;0.00;0.00;;;19.40;99.90;;;;;;5085733;28;20045;-78
2022/07/22 11:24:20;;;;;;;0.00;0.00;;;19.30;99.90;;;;;;5086029;28;20045;-79
2022/07/22 11:26:52;;;;;;;0.00;0.00;;;19.20;99.90;;;;;;5068724;28;20061;-79
2022/07/22 11:29:27;;;;;;;0.00;0.00;;;19.20;99.90;;;;;;5085943;28;20199;-79
2022/07/22 11:31:53;;;;;;;;;;;19.20;99.90;;;;;;5069877;28;20106;-78
2022/07/22 11:34:20;;;;;;;0.00;0.00;;;19.20;99.90;;;;;;5069164;28;19921;-79
2022/07/22 11:36:47;;;;;;;0.00;0.00;;;19.20;99.90;;;;;;5068806;28;20041;-79
2022/07/22 11:39:14;;;;;;;0.00;0.00;;;19.10;99.90;;;;;;5085764;28;20136;-78
2022/07/22 11:41:40;;;;;;;0.00;0.00;;;19.10;99.90;;;;;;5085758;28;20553;-78
2022/07/22 11:44:07;;;;;;;0.30;0.30;;;19.00;99.90;;;;;;5085908;28;20052;-79
2022/07/22 11:46:38;;;;;;;0.40;0.25;;;19.00;99.90;;;;;;5085715;28;20049;-78
2022/07/22 11:49:04;;;;;;;0.00;0.00;;;18.90;99.90;;;;;;5085318;28;20099;-78
2022/07/22 11:51:31;;;;;;;0.00;0.00;;;18.80;99.90;;;;;;5087343;28;20140;-79
2022/07/22 11:53:58;;;;;;;0.00;0.00;;;18.70;99.90;;;;;;5072193;28;20118;-78
2022/07/22 11:56:24;;;;;;;0.00;0.00;;;18.60;99.90;;;;;;5089240;28;20139;-78
2022/07/22 11:58:55;;;;;;;0.05;0.00;;;18.60;99.90;;;;;;5072775;28;20123;-78
2022/07/22 12:01:22;;;;;;;0.00;0.00;;;18.60;99.90;;;;;;5089401;28;20043;-78
2022/07/22 12:03:54;;;;;;;0.10;0.10;;;18.50;99.90;;;;;;5055698;28;20476;-86
2022/07/22 12:06:21;;;;;;;0.00;0.00;;;18.50;99.90;;;;;;5072280;28;20052;-78
2022/07/22 12:09:06;;;;;;;0.00;0.00;;;18.50;99.90;;;;;;5072472;28;20497;-78
2022/07/22 12:11:33;;;;;;;0.00;0.00;;;18.50;99.90;;;;;;5089474;28;20052;-79
2022/07/22 12:14:07;;;;;;;0.00;0.00;;;18.60;99.90;;;;;;5072039;28;20053;-79
2022/07/22 12:16:33;;;;;;;0.00;0.00;;;18.50;99.90;;;;;;5089070;28;20378;-79
2022/07/22 12:19:01;;;;;;;0.00;0.00;;;18.60;99.90;;;;;;5089225;28;20044;-79
2022/07/22 12:21:28;;;;;;;0.00;0.00;;;18.60;99.90;;;;;;5071995;28;20088;-79
2022/07/22 12:24:06;;;;;;;1.08;0.35;;;18.70;99.90;;;;;;5088950;28;20084;-79
2022/07/22 12:26:46;;;;;;;0.00;0.00;;;18.70;99.90;;;;;;5039021;28;20503;-79
2022/07/22 12:29:20;;;;;;;0.00;0.00;;;18.70;99.90;;;;;;5088963;28;20485;-78
2022/07/22 12:31:55;;;;;;;0.10;0.10;;;18.70;99.90;;;;;;5089607;28;20049;-78
2022/07/22 12:34:29;;;;;;;0.00;0.00;;;18.80;99.90;;;;;;5072494;28;20122;-78
2022/07/22 12:36:55;;;;;;;0.00;0.00;;;18.70;99.90;;;;;;5088613;28;20056;-79
2022/07/22 12:39:21;;;;;;;0.00;0.00;;;18.70;99.90;;;;;;5071730;28;20049;-79
2022/07/22 12:41:52;;;;;;;0.10;0.10;;;18.80;99.90;;;;;;5071860;28;20163;-78
2022/07/22 12:44:25;;;;;;;0.00;0.00;;;18.80;99.90;;;;;;5088496;28;20048;-78
2022/07/22 12:46:55;;;;;;;0.00;0.00;;;18.90;99.90;;;;;;5088950;28;20134;-78